Willow Island, NE (69171)

1:16 PM CDT on September 29, 2016 (GMT -0500)
Cozad, Nebraska | | Change Station

Elev 2487 ft 40.86 °N, 99.92 °W | Updated 38 seconds ago

Clear
Clear
65.6 °F
Feels Like 65.6 °F
N
6.0
Wind Variable Wind from SSE
Gusts 11.0 mph

Today
High -- | Low -- °F
--% Chance of Precip.
Yesterday
High -- | Low -- °F
Precip. -- in
Pressure 30.42 in
Visibility 10.0 miles
Clouds Clear
Dew Point 49 °F
Humidity 55%
Rainfall 0.02 in
Snow Depth Not available.
7:35 AM 7:24 PM
Waning Crescent, 1% visible
METAR KLXN 291755Z AUTO 07003KT 10SM CLR 18/07 A3042 RMK AO2 T01800067 10180 20021
Pressure 30.42 in
Visibility 10.0 miles
Clouds Clear
Dew Point 49 °F
Humidity 55%
Rainfall 0.02 in
Snow Depth Not available.
7:35 AM 7:24 PM
Waning Crescent, 1% visible
METAR KLXN 291755Z AUTO 07003KT 10SM CLR 18/07 A3042 RMK AO2 T01800067 10180 20021

10-Day Weather Forecast

Almanac

Astronomy

Sep. 29, 2016 Rise Set
Actual Time
Civil Twilight
Nautical Twilight
Astronomical Twilight
Moon
Length of Visible Light
Length of Day
Tomorrow will be .
, % of the Moon is Illuminated

Today's Extremes

State Highs State Lows

Community

WunderPhotos

Upload Photos

1,942,537 photos uploaded!

WunderBlog® & News

Nearby

Air Quality

  Air Quality AQ Index Pollutant
Not available.

Snow Depth

Station Depth Elevation

Earthquake Activity

City Distance Mag. Time & Date
Minimum magnitude displayed is 2.5.

Coastal Water Temperatures

Place Temperature

Stations

Nearby Weather Stations

Station Location Temp. Windchill Dew Point Humidity Wind Precip. Elev Updated Type
                   

Watches & Warnings

There are currently no watches in effect.